createdAt,value
2019-05-02T00:02:02.463Z,7.60
2019-05-02T00:04:31.193Z,7.60
2019-05-02T00:07:04.036Z,7.60
2019-05-02T00:09:33.917Z,7.50
2019-05-02T00:12:03.441Z,7.50
2019-05-02T00:14:32.197Z,7.50
2019-05-02T00:17:00.844Z,7.50
2019-05-02T00:19:29.483Z,7.60
2019-05-02T00:21:58.556Z,7.60
2019-05-02T00:24:27.294Z,7.40
2019-05-02T00:27:00.799Z,7.30
2019-05-02T00:29:26.264Z,7.30
2019-05-02T00:31:54.911Z,7.20
2019-05-02T00:34:25.712Z,7.20
2019-05-02T00:36:54.374Z,7.00
2019-05-02T00:39:23.085Z,7.00
2019-05-02T00:41:51.736Z,7.10
2019-05-02T00:44:22.926Z,7.10
2019-05-02T00:46:51.903Z,7.20
2019-05-02T00:49:23.277Z,7.20
2019-05-02T00:51:51.996Z,7.20
2019-05-02T00:54:24.120Z,7.10
2019-05-02T00:56:50.892Z,7.00
2019-05-02T00:59:19.519Z,7.00
2019-05-02T01:01:52.589Z,7.10
2019-05-02T01:04:23.252Z,7.00
2019-05-02T01:07:02.337Z,7.00
2019-05-02T01:09:31.960Z,6.90
2019-05-02T01:12:03.095Z,6.80
2019-05-02T01:14:31.823Z,6.80
2019-05-02T01:17:01.576Z,6.70
2019-05-02T01:19:32.142Z,6.60
2019-05-02T01:22:00.880Z,6.50
2019-05-02T01:24:34.247Z,6.70
2019-05-02T01:27:08.226Z,6.60
2019-05-02T01:29:38.456Z,6.50
2019-05-02T01:32:11.425Z,6.40
2019-05-02T01:34:41.778Z,6.50
2019-05-02T01:37:30.075Z,6.40
2019-05-02T01:40:01.424Z,6.30
2019-05-02T01:42:39.704Z,6.50
2019-05-02T01:45:00.311Z,6.60
2019-05-02T01:47:34.188Z,6.50
2019-05-02T01:50:00.292Z,6.50
2019-05-02T01:52:28.964Z,6.60
2019-05-02T01:54:57.451Z,6.70
2019-05-02T01:57:26.128Z,6.70
2019-05-02T02:00:04.307Z,6.70
2019-05-02T02:02:36.612Z,6.80
2019-05-02T02:05:07.517Z,6.90
2019-05-02T02:07:36.159Z,7.10
2019-05-02T02:10:06.565Z,7.20
2019-05-02T02:12:35.555Z,7.30
2019-05-02T02:15:05.462Z,7.20
2019-05-02T02:17:34.067Z,7.20
2019-05-02T02:20:04.351Z,6.70
2019-05-02T02:22:41.105Z,6.60
2019-05-02T02:25:26.839Z,6.60
2019-05-02T02:27:59.724Z,6.60
2019-05-02T02:30:26.611Z,6.70
2019-05-02T02:33:00.551Z,6.80
2019-05-02T02:35:31.720Z,6.80
2019-05-02T02:38:00.413Z,6.70
2019-05-02T02:40:33.534Z,6.60
2019-05-02T02:43:12.710Z,6.40
2019-05-02T02:45:40.131Z,6.00
2019-05-02T02:48:08.766Z,6.10
2019-05-02T02:50:43.203Z,6.20
2019-05-02T02:53:07.996Z,6.30
2019-05-02T02:55:36.558Z,6.20
2019-05-02T02:58:06.610Z,6.20
2019-05-02T03:00:41.524Z,6.20
2019-05-02T03:03:09.417Z,6.30
2019-05-02T03:05:38.023Z,6.30
2019-05-02T03:08:07.262Z,6.00
2019-05-02T03:10:56.649Z,5.90
2019-05-02T03:13:26.928Z,6.10
2019-05-02T03:16:07.049Z,6.20
2019-05-02T03:18:39.499Z,5.80
2019-05-02T03:21:01.222Z,5.70
2019-05-02T03:23:30.335Z,5.60
2019-05-02T03:25:59.026Z,5.50
2019-05-02T03:28:27.720Z,5.50
2019-05-02T03:30:59.378Z,5.70
2019-05-02T03:33:28.505Z,5.50
2019-05-02T03:35:58.115Z,5.40
2019-05-02T03:38:32.739Z,5.50
2019-05-02T03:41:00.134Z,5.60
2019-05-02T03:43:31.889Z,5.50
2019-05-02T03:46:05.811Z,5.20
2019-05-02T03:48:35.454Z,4.90
2019-05-02T03:51:05.196Z,5.00
2019-05-02T03:53:34.544Z,5.20
2019-05-02T03:56:10.472Z,5.30
2019-05-02T03:58:35.548Z,5.40
2019-05-02T04:01:09.932Z,5.40
2019-05-02T04:03:44.499Z,5.30
2019-05-02T04:06:31.908Z,5.30
2019-05-02T04:09:05.670Z,5.00
2019-05-02T04:11:44.022Z,4.80
2019-05-02T04:14:17.787Z,4.80
2019-05-02T04:16:55.108Z,5.00
2019-05-02T04:19:36.669Z,5.20
2019-05-02T04:22:22.525Z,5.00
2019-05-02T04:25:00.772Z,4.90
2019-05-02T04:27:36.157Z,5.10
2019-05-02T04:30:11.394Z,5.20
2019-05-02T04:32:35.840Z,5.50
2019-05-02T04:35:05.513Z,5.80
2019-05-02T04:37:41.179Z,5.70
2019-05-02T04:40:12.165Z,5.60
2019-05-02T04:42:50.391Z,5.60
2019-05-02T04:45:24.408Z,5.70
2019-05-02T04:47:54.899Z,5.80
2019-05-02T04:50:18.453Z,5.60
2019-05-02T04:52:53.633Z,5.50
2019-05-02T04:55:30.255Z,5.80
2019-05-02T04:57:54.310Z,6.20
2019-05-02T05:00:28.947Z,6.40
2019-05-02T05:03:28.302Z,6.60
2019-05-02T05:06:06.834Z,6.70
2019-05-02T05:08:32.158Z,6.80
2019-05-02T05:11:07.944Z,6.70
2019-05-02T05:13:37.390Z,7.20
2019-05-02T05:16:15.672Z,8.10
2019-05-02T05:19:10.916Z,8.60
2019-05-02T05:22:18.247Z,8.50
2019-05-02T05:24:58.233Z,9.20
2019-05-02T05:27:29.709Z,9.90
2019-05-02T05:30:07.950Z,9.70
2019-05-02T05:32:39.009Z,9.80
2019-05-02T05:35:09.025Z,10.50
2019-05-02T05:37:43.429Z,11.00
2019-05-02T05:40:13.589Z,11.30
2019-05-02T05:42:48.212Z,10.60
2019-05-02T05:45:18.078Z,10.90
2019-05-02T05:47:47.926Z,11.10
2019-05-02T05:50:22.636Z,11.80
2019-05-02T05:52:51.955Z,12.30
2019-05-02T05:55:24.225Z,13.40
2019-05-02T05:57:59.485Z,13.60
2019-05-02T06:00:23.195Z,13.00
2019-05-02T06:02:56.285Z,12.00
2019-05-02T06:05:22.416Z,12.10
2019-05-02T06:07:51.088Z,12.90
2019-05-02T06:10:20.065Z,13.20
2019-05-02T06:12:48.902Z,13.20
2019-05-02T06:15:17.484Z,13.90
2019-05-02T06:17:46.078Z,14.30
2019-05-02T06:20:15.514Z,15.00
2019-05-02T06:22:59.939Z,15.00
2019-05-02T06:25:34.611Z,15.10
2019-05-02T06:28:00.258Z,14.90
2019-05-02T06:30:30.705Z,15.00
2019-05-02T06:32:57.217Z,15.30
2019-05-02T06:35:25.811Z,15.30
2019-05-02T06:37:54.405Z,14.20
2019-05-02T06:40:23.020Z,14.00
2019-05-02T06:42:51.587Z,14.80
2019-05-02T06:45:20.480Z,16.00
2019-05-02T06:47:49.083Z,15.80
2019-05-02T06:50:17.928Z,14.90
2019-05-02T06:52:46.538Z,14.70
2019-05-02T06:55:17.757Z,14.40
2019-05-02T06:57:47.981Z,13.90
2019-05-02T07:00:17.741Z,14.00
2019-05-02T07:02:46.345Z,13.80
2019-05-02T07:05:15.100Z,14.10
2019-05-02T07:07:43.748Z,14.70
2019-05-02T07:10:13.000Z,15.20
2019-05-02T07:12:46.149Z,16.20
2019-05-02T07:15:33.642Z,16.70
2019-05-02T07:18:12.104Z,16.70
2019-05-02T07:20:54.211Z,17.90
2019-05-02T07:23:23.282Z,18.40
2019-05-02T07:25:53.987Z,18.10
2019-05-02T07:28:24.199Z,18.40
2019-05-02T07:30:54.774Z,18.80
2019-05-02T07:33:23.746Z,18.00
2019-05-02T07:35:55.323Z,17.80
2019-05-02T07:38:25.619Z,18.60
2019-05-02T07:40:54.306Z,17.30
2019-05-02T07:43:25.344Z,19.00
2019-05-02T07:45:59.728Z,20.00
2019-05-02T07:48:34.757Z,21.10
2019-05-02T07:51:26.996Z,21.80
2019-05-02T07:53:59.249Z,22.50
2019-05-02T07:56:28.443Z,22.50
2019-05-02T07:59:11.087Z,23.50
2019-05-02T08:01:44.908Z,25.00
2019-05-02T08:04:24.217Z,25.30
2019-05-02T08:06:55.121Z,25.20
2019-05-02T08:09:32.828Z,25.30
2019-05-02T08:12:10.480Z,25.00
2019-05-02T08:14:40.327Z,25.20
2019-05-02T08:17:16.125Z,25.20
2019-05-02T08:19:53.942Z,25.20
2019-05-02T08:22:25.623Z,24.90
2019-05-02T08:25:02.575Z,23.70
2019-05-02T08:27:34.739Z,22.90
2019-05-02T08:30:04.448Z,22.40
2019-05-02T08:32:39.305Z,22.70
2019-05-02T08:35:09.374Z,22.20
2019-05-02T08:37:41.031Z,22.80
2019-05-02T08:40:11.047Z,23.80
2019-05-02T08:42:41.572Z,24.30
2019-05-02T08:45:10.404Z,24.90
2019-05-02T08:47:39.090Z,24.30
2019-05-02T08:50:08.863Z,24.20
2019-05-02T08:52:44.213Z,22.80
2019-05-02T08:55:13.129Z,22.20
2019-05-02T08:57:41.812Z,22.00
2019-05-02T09:00:12.847Z,20.50
2019-05-02T09:02:42.211Z,20.20
2019-05-02T09:05:14.637Z,20.90
2019-05-02T09:07:43.396Z,21.20
2019-05-02T09:10:21.076Z,21.70
2019-05-02T09:12:49.688Z,22.20
2019-05-02T09:15:18.427Z,22.30
2019-05-02T09:17:54.905Z,22.70
2019-05-02T09:20:20.759Z,22.50
2019-05-02T09:22:52.197Z,22.30
2019-05-02T09:25:18.761Z,22.70
2019-05-02T09:28:03.989Z,22.90
2019-05-02T09:30:32.790Z,22.80
2019-05-02T09:33:04.914Z,22.30
2019-05-02T09:35:32.816Z,21.20
2019-05-02T09:38:01.845Z,21.60
2019-05-02T09:40:31.912Z,22.10
2019-05-02T09:43:02.824Z,22.20
2019-05-02T09:45:37.013Z,22.00
2019-05-02T09:48:07.185Z,22.40
2019-05-02T09:50:35.488Z,21.80
2019-05-02T09:53:07.686Z,21.30
2019-05-02T09:55:36.266Z,21.10
2019-05-02T09:58:19.058Z,20.80
2019-05-02T10:00:45.903Z,20.20
2019-05-02T10:03:16.349Z,20.10
2019-05-02T10:05:45.042Z,19.90
2019-05-02T10:08:14.078Z,19.00
2019-05-02T10:10:46.011Z,18.70
2019-05-02T10:13:14.911Z,18.50
2019-05-02T10:15:43.559Z,18.30
2019-05-02T10:18:14.536Z,18.10
2019-05-02T10:20:42.940Z,17.90
2019-05-02T10:23:19.348Z,17.60
2019-05-02T10:25:48.078Z,17.40
2019-05-02T10:28:22.660Z,17.30
2019-05-02T10:30:52.581Z,17.30
2019-05-02T10:33:27.958Z,17.20
2019-05-02T10:35:54.491Z,17.20
2019-05-02T10:38:23.206Z,17.00
2019-05-02T10:41:01.329Z,17.00
2019-05-02T10:43:25.234Z,16.90
2019-05-02T10:46:01.903Z,16.70
2019-05-02T10:48:34.787Z,16.80
2019-05-02T10:51:25.631Z,16.80
2019-05-02T10:53:57.567Z,16.90
2019-05-02T10:56:32.718Z,16.90
2019-05-02T10:59:05.309Z,16.90
2019-05-02T11:01:36.255Z,17.10
2019-05-02T11:04:07.146Z,17.40
2019-05-02T11:06:45.911Z,17.10
2019-05-02T11:09:16.740Z,17.10
2019-05-02T11:11:43.237Z,16.60
2019-05-02T11:14:15.737Z,16.60
2019-05-02T11:17:08.772Z,16.50
2019-05-02T11:19:46.412Z,16.60
2019-05-02T11:22:15.069Z,16.50
2019-05-02T11:24:43.640Z,16.40
2019-05-02T11:27:12.815Z,16.50
2019-05-02T11:29:42.568Z,16.70
2019-05-02T11:32:14.474Z,17.00
2019-05-02T11:34:52.284Z,17.10
2019-05-02T11:37:22.560Z,17.20
2019-05-02T11:39:59.290Z,17.10
2019-05-02T11:42:27.245Z,17.20
2019-05-02T11:44:54.132Z,17.20
2019-05-02T11:47:26.487Z,17.20
2019-05-02T11:49:55.926Z,16.90
2019-05-02T11:52:33.089Z,17.00
2019-05-02T11:54:59.349Z,16.70
2019-05-02T11:57:30.387Z,16.60
2019-05-02T11:59:59.396Z,16.60
2019-05-02T12:02:36.353Z,16.70
2019-05-02T12:05:10.331Z,16.70
2019-05-02T12:07:38.981Z,17.00
2019-05-02T12:10:08.044Z,17.20
2019-05-02T12:12:36.689Z,17.30
2019-05-02T12:15:07.221Z,17.40
2019-05-02T12:17:37.377Z,17.30
2019-05-02T12:20:06.431Z,17.40
2019-05-02T12:22:35.136Z,17.40
2019-05-02T12:25:04.550Z,17.30
2019-05-02T12:27:34.080Z,17.20
2019-05-02T12:30:03.342Z,16.80
2019-05-02T12:32:33.423Z,16.50
2019-05-02T12:35:02.523Z,16.60
2019-05-02T12:37:32.704Z,16.60
2019-05-02T12:40:02.699Z,16.80
2019-05-02T12:42:33.082Z,16.60
2019-05-02T12:45:02.841Z,16.50
2019-05-02T12:47:31.991Z,16.50
2019-05-02T12:50:02.968Z,16.50
2019-05-02T12:52:32.075Z,16.60
2019-05-02T12:55:02.279Z,16.80
2019-05-02T12:57:32.138Z,16.70
2019-05-02T13:00:02.041Z,16.80
2019-05-02T13:02:52.547Z,16.70
2019-05-02T13:05:22.197Z,16.70
2019-05-02T13:07:56.609Z,16.80
2019-05-02T13:10:26.951Z,16.70
2019-05-02T13:12:55.574Z,16.50
2019-05-02T13:15:24.212Z,16.30
2019-05-02T13:17:52.994Z,16.20
2019-05-02T13:20:24.731Z,16.20
2019-05-02T13:23:06.160Z,16.20
2019-05-02T13:25:36.859Z,15.90
2019-05-02T13:28:05.332Z,15.80
2019-05-02T13:30:42.717Z,15.60
2019-05-02T13:33:07.600Z,15.50
2019-05-02T13:35:37.883Z,15.60
2019-05-02T13:38:06.767Z,15.80
2019-05-02T13:40:41.666Z,15.90
2019-05-02T13:43:12.344Z,16.10
2019-05-02T13:45:46.393Z,16.30
2019-05-02T13:48:15.138Z,16.40
2019-05-02T13:50:43.856Z,16.70
2019-05-02T13:53:22.560Z,16.30
2019-05-02T13:55:54.851Z,16.50
2019-05-02T13:58:28.977Z,16.30
2019-05-02T14:00:53.930Z,16.20
2019-05-02T14:03:22.732Z,16.40
2019-05-02T14:05:53.823Z,16.50
2019-05-02T14:08:27.673Z,16.80
2019-05-02T14:10:57.858Z,16.70
2019-05-02T14:13:28.551Z,16.70
2019-05-02T14:15:57.348Z,16.70
2019-05-02T14:18:28.842Z,16.70
2019-05-02T14:20:57.805Z,16.80
2019-05-02T14:23:27.152Z,17.00
2019-05-02T14:26:04.338Z,17.00
2019-05-02T14:28:36.318Z,17.10
2019-05-02T14:31:03.626Z,17.30
2019-05-02T14:33:33.865Z,17.30
2019-05-02T14:36:02.450Z,17.30
2019-05-02T14:38:33.660Z,17.40
2019-05-02T14:41:05.018Z,17.40
2019-05-02T14:43:56.110Z,17.50
2019-05-02T14:46:37.329Z,17.70
2019-05-02T14:48:56.983Z,18.00
2019-05-02T14:51:28.358Z,18.20
2019-05-02T14:54:07.970Z,18.40
2019-05-02T14:56:47.815Z,18.60
2019-05-02T14:59:19.921Z,18.70
2019-05-02T15:01:53.066Z,18.70
2019-05-02T15:04:23.439Z,18.50
2019-05-02T15:06:52.713Z,18.50
2019-05-02T15:09:26.374Z,18.30
2019-05-02T15:12:02.393Z,18.30
2019-05-02T15:14:34.184Z,18.10
2019-05-02T15:17:03.814Z,17.90
2019-05-02T15:19:33.087Z,17.50
2019-05-02T15:22:02.408Z,17.30
2019-05-02T15:24:37.544Z,17.30
2019-05-02T15:27:13.616Z,17.20
2019-05-02T15:29:41.992Z,16.90
2019-05-02T15:32:14.858Z,16.60
2019-05-02T15:35:02.383Z,16.20
2019-05-02T15:37:32.164Z,15.90
2019-05-02T15:42:32.292Z,15.20
2019-05-02T15:45:01.947Z,15.00
2019-05-02T15:47:32.088Z,15.10
2019-05-02T15:50:02.855Z,15.30
2019-05-02T15:52:32.780Z,15.50
2019-05-02T15:55:03.990Z,15.60
2019-05-02T15:57:38.034Z,15.80
2019-05-02T16:00:09.082Z,15.70
2019-05-02T16:02:38.282Z,15.60
2019-05-02T16:05:11.769Z,15.60
2019-05-02T16:07:44.963Z,15.90
2019-05-02T16:10:13.498Z,16.10
2019-05-02T16:12:43.792Z,16.40
2019-05-02T16:15:21.111Z,16.60
2019-05-02T16:17:45.359Z,16.70
2019-05-02T16:20:24.039Z,17.00
2019-05-02T16:22:55.180Z,17.10
2019-05-02T16:25:26.000Z,17.10
2019-05-02T16:27:57.582Z,17.30
2019-05-02T16:30:47.278Z,17.60
2019-05-02T16:33:17.399Z,17.80
2019-05-02T16:35:51.536Z,18.10
2019-05-02T16:38:22.241Z,18.10
2019-05-02T16:40:57.056Z,18.00
2019-05-02T16:43:27.580Z,17.50
2019-05-02T16:45:56.219Z,17.50
2019-05-02T16:48:42.485Z,16.80
2019-05-02T16:51:31.066Z,16.70
2019-05-02T16:53:55.997Z,16.60
2019-05-02T16:56:26.744Z,16.50
2019-05-02T16:59:02.117Z,16.30
2019-05-02T17:01:42.455Z,16.30
2019-05-02T17:04:19.681Z,16.20
2019-05-02T17:07:06.930Z,16.30
2019-05-02T17:09:52.099Z,16.30
2019-05-02T17:12:23.673Z,16.40
2019-05-02T17:15:13.778Z,16.60
2019-05-02T17:17:46.884Z,17.00
2019-05-02T17:20:17.094Z,17.00
2019-05-02T17:22:50.486Z,17.10
2019-05-02T17:25:28.383Z,17.00
2019-05-02T17:28:01.682Z,16.80
2019-05-02T17:30:38.542Z,16.60
2019-05-02T17:33:07.097Z,16.40
2019-05-02T17:35:34.722Z,16.20
2019-05-02T17:38:05.000Z,15.80
2019-05-02T17:40:46.108Z,15.70
2019-05-02T17:43:22.697Z,15.70
2019-05-02T17:45:51.568Z,15.70
2019-05-02T17:48:20.300Z,15.50
2019-05-02T17:51:02.585Z,15.30
2019-05-02T17:53:33.931Z,15.20
2019-05-02T17:56:03.593Z,15.10
2019-05-02T17:58:34.613Z,15.00
2019-05-02T18:01:04.904Z,14.90
2019-05-02T18:03:48.237Z,14.80
2019-05-02T18:06:35.669Z,14.70
2019-05-02T18:09:08.007Z,14.60
2019-05-02T18:11:44.002Z,14.40
2019-05-02T18:14:21.244Z,14.40
2019-05-02T18:16:51.872Z,14.40
2019-05-02T18:19:21.867Z,14.20
2019-05-02T18:21:50.050Z,14.20
2019-05-02T18:24:18.750Z,14.20
2019-05-02T18:26:47.466Z,14.20
2019-05-02T18:29:16.442Z,14.10
2019-05-02T18:31:57.165Z,13.90
2019-05-02T18:34:26.024Z,13.60
2019-05-02T18:37:03.081Z,13.50
2019-05-02T18:39:34.815Z,13.30
2019-05-02T18:42:03.038Z,13.20
2019-05-02T18:44:32.614Z,13.10
2019-05-02T18:47:02.413Z,13.00
2019-05-02T18:49:32.297Z,12.90
2019-05-02T18:52:01.811Z,12.80
2019-05-02T18:54:48.725Z,12.70
2019-05-02T18:57:24.421Z,12.70
2019-05-02T19:00:02.671Z,12.50
2019-05-02T19:02:35.605Z,12.50
2019-05-02T19:05:06.014Z,12.40
2019-05-02T19:07:54.825Z,12.20
2019-05-02T19:10:23.149Z,12.20
2019-05-02T19:12:56.067Z,12.00
2019-05-02T19:15:23.544Z,11.90
2019-05-02T19:17:53.343Z,11.80
2019-05-02T19:20:32.590Z,11.80
2019-05-02T19:23:07.370Z,11.60
2019-05-02T19:25:36.095Z,11.40
2019-05-02T19:28:06.825Z,11.40
2019-05-02T19:30:39.847Z,11.30
2019-05-02T19:33:08.683Z,11.20
2019-05-02T19:35:42.112Z,11.20
2019-05-02T19:38:08.990Z,11.20
2019-05-02T19:40:37.656Z,11.20
2019-05-02T19:43:07.802Z,11.10
2019-05-02T19:45:37.037Z,11.00
2019-05-02T19:48:05.958Z,10.80
2019-05-02T19:50:43.142Z,10.80
2019-05-02T19:53:18.099Z,10.80
2019-05-02T19:55:42.701Z,10.80
2019-05-02T19:58:36.568Z,10.70
2019-05-02T20:01:05.708Z,10.60
2019-05-02T20:03:47.875Z,10.50
2019-05-02T20:06:16.660Z,10.40
2019-05-02T20:08:45.386Z,10.30
2019-05-02T20:11:14.095Z,10.30
2019-05-02T20:13:42.989Z,10.20
2019-05-02T20:16:26.051Z,10.20
2019-05-02T20:18:58.064Z,10.20
2019-05-02T20:21:34.058Z,10.20
2019-05-02T20:24:04.109Z,10.30
2019-05-02T20:26:33.171Z,10.20
2019-05-02T20:29:05.439Z,10.20
2019-05-02T20:31:34.632Z,10.10
2019-05-02T20:34:05.859Z,10.10
2019-05-02T20:36:36.123Z,10.00
2019-05-02T20:39:08.102Z,10.00
2019-05-02T20:41:36.894Z,10.00
2019-05-02T20:44:05.561Z,9.90
2019-05-02T20:46:34.271Z,9.90
2019-05-02T20:49:04.000Z,9.90
2019-05-02T20:51:32.689Z,9.90
2019-05-02T20:54:02.004Z,9.90
2019-05-02T20:56:33.815Z,10.00
2019-05-02T20:59:04.848Z,9.90
2019-05-02T21:01:36.138Z,10.00
2019-05-02T21:04:04.794Z,9.70
2019-05-02T21:06:50.137Z,9.50
2019-05-02T21:09:23.097Z,9.60
2019-05-02T21:11:53.445Z,9.60
2019-05-02T21:14:22.274Z,9.60
2019-05-02T21:16:51.038Z,9.60
2019-05-02T21:19:21.726Z,9.20
2019-05-02T21:21:52.573Z,8.90
2019-05-02T21:24:22.090Z,8.90
2019-05-02T21:27:01.799Z,8.90
2019-05-02T21:29:36.261Z,9.00
2019-05-02T21:32:04.997Z,8.80
2019-05-02T21:34:34.703Z,8.50
2019-05-02T21:37:03.341Z,8.50
2019-05-02T21:39:34.671Z,8.60
2019-05-02T21:42:03.419Z,8.60
2019-05-02T21:44:32.587Z,8.50
2019-05-02T21:47:02.874Z,8.40
2019-05-02T21:49:44.948Z,8.30
2019-05-02T21:52:22.583Z,8.20
2019-05-02T21:54:53.091Z,8.30
2019-05-02T21:57:24.761Z,8.30
2019-05-02T21:59:52.886Z,8.40
2019-05-02T22:02:22.575Z,8.40
2019-05-02T22:04:57.610Z,8.20
2019-05-02T22:07:32.339Z,8.30
2019-05-02T22:09:59.826Z,8.40
2019-05-02T22:12:31.790Z,8.30
2019-05-02T22:15:03.216Z,8.30
2019-05-02T22:17:32.293Z,8.30
2019-05-02T22:20:01.871Z,8.30
2019-05-02T22:22:31.751Z,8.20
2019-05-02T22:25:02.226Z,8.10
2019-05-02T22:27:47.178Z,8.20
2019-05-02T22:30:23.186Z,8.20
2019-05-02T22:32:55.675Z,8.30
2019-05-02T22:35:26.445Z,8.30
2019-05-02T22:38:05.483Z,8.30
2019-05-02T22:40:36.837Z,8.30
2019-05-02T22:43:14.652Z,8.40
2019-05-02T22:45:43.506Z,8.40
2019-05-02T22:48:14.289Z,8.50
2019-05-02T22:50:43.415Z,8.40
2019-05-02T22:53:13.898Z,8.20
2019-05-02T22:55:42.543Z,8.30
2019-05-02T22:58:13.863Z,8.20
2019-05-02T23:00:45.327Z,8.20
2019-05-02T23:03:24.150Z,8.10
2019-05-02T23:05:52.710Z,8.10
2019-05-02T23:08:21.958Z,8.50
2019-05-02T23:10:52.024Z,8.80
2019-05-02T23:13:21.984Z,8.90
2019-05-02T23:15:53.372Z,8.90
2019-05-02T23:18:28.094Z,9.10
2019-05-02T23:20:56.819Z,9.20
2019-05-02T23:23:28.137Z,9.40
2019-05-02T23:26:10.402Z,9.30
2019-05-02T23:28:42.291Z,9.10
2019-05-02T23:31:11.483Z,8.60
2019-05-02T23:34:01.842Z,8.40
2019-05-02T23:36:32.619Z,8.20
2019-05-02T23:39:05.762Z,8.30
2019-05-02T23:41:42.016Z,8.10
2019-05-02T23:44:12.301Z,7.90
2019-05-02T23:46:51.607Z,8.00
2019-05-02T23:49:22.009Z,7.90
2019-05-02T23:51:52.212Z,7.80
2019-05-02T23:54:22.056Z,7.70
2019-05-02T23:56:50.897Z,7.70
2019-05-02T23:59:19.521Z,7.80
